GTRVO EGLM-EGTR
Flight info
| Callsign | GTRVO |
|---|---|
| Flight time | 0h 17m |
| Altitude | 3500 |
| Route | BNN |
| Aircraft | C208/L-SDFGR/C |
Departure
| Time | 2026-04-29 08:45 |
|---|---|
| Airport | White Waltham Airfield (EGLM) |
Arrival
| Time | 2026-04-29 09:03 |
|---|---|
| Airport | Elstree Airfield (EGTR) |
| Time | Latitude | Longitude | Altitude | Speed | Heading |
|---|---|---|---|---|---|
| 2026-04-29 08:17 | 51.49527 | -0.77303 | 122 ft | 0 kts | 335° |
| 2026-04-29 08:39 | 51.49529 | -0.77303 | 125 ft | 1 kts | 359° |
| 2026-04-29 08:39 | 51.49533 | -0.77278 | 121 ft | 5 kts | 67° |
| 2026-04-29 08:40 | 51.49566 | -0.77311 | 125 ft | 8 kts | 272° |
| 2026-04-29 08:40 | 51.49535 | -0.77394 | 128 ft | 8 kts | 232° |
| 2026-04-29 08:40 | 51.49523 | -0.77419 | 126 ft | 1 kts | 236° |
| 2026-04-29 08:40 | 51.49532 | -0.77464 | 130 ft | 6 kts | 298° |
| 2026-04-29 08:41 | 51.49560 | -0.77513 | 132 ft | 7 kts | 333° |
| 2026-04-29 08:41 | 51.49596 | -0.77504 | 131 ft | 0 kts | 27° |
| 2026-04-29 08:44 | 51.49725 | -0.77401 | 135 ft | 51 kts | 26° |
| 2026-04-29 08:45 | 51.50156 | -0.77124 | 320 ft | 76 kts | 27° |
| 2026-04-29 08:45 | 51.50759 | -0.77061 | 571 ft | 105 kts | 353° |
| 2026-04-29 08:45 | 51.51453 | -0.77664 | 926 ft | 118 kts | 339° |
| 2026-04-29 08:45 | 51.52216 | -0.78235 | 1238 ft | 126 kts | 350° |
| 2026-04-29 08:46 | 51.53052 | -0.78772 | 1608 ft | 134 kts | 350° |
| 2026-04-29 08:46 | 51.53953 | -0.79252 | 1842 ft | 135 kts | 359° |
| 2026-04-29 08:46 | 51.54868 | -0.79593 | 2046 ft | 134 kts | 359° |
| 2026-04-29 08:46 | 51.55763 | -0.79949 | 2233 ft | 132 kts | 360° |
| 2026-04-29 08:47 | 51.56660 | -0.80344 | 2421 ft | 136 kts | 359° |
| 2026-04-29 08:47 | 51.57584 | -0.80712 | 2571 ft | 131 kts | 12° |
| 2026-04-29 08:47 | 51.58414 | -0.80477 | 2757 ft | 121 kts | 30° |
| 2026-04-29 08:47 | 51.59229 | -0.80168 | 2931 ft | 119 kts | 29° |
| 2026-04-29 08:48 | 51.60066 | -0.79840 | 2959 ft | 125 kts | 36° |
| 2026-04-29 08:48 | 51.60523 | -0.78940 | 2960 ft | 97 kts | 79° |
| 2026-04-29 08:48 | 51.60811 | -0.78000 | 2957 ft | 96 kts | 62° |
| 2026-04-29 08:48 | 51.61206 | -0.77143 | 2960 ft | 95 kts | 63° |
| 2026-04-29 08:49 | 51.61609 | -0.76305 | 2963 ft | 95 kts | 62° |
| 2026-04-29 08:49 | 51.62023 | -0.75470 | 2963 ft | 95 kts | 62° |
| 2026-04-29 08:49 | 51.62434 | -0.74667 | 2965 ft | 91 kts | 62° |
| 2026-04-29 08:49 | 51.62847 | -0.73852 | 2796 ft | 94 kts | 63° |
| 2026-04-29 08:50 | 51.63261 | -0.73037 | 2605 ft | 94 kts | 63° |
| 2026-04-29 08:50 | 51.63674 | -0.72242 | 2424 ft | 93 kts | 61° |
| 2026-04-29 08:50 | 51.64094 | -0.71429 | 2243 ft | 94 kts | 59° |
| 2026-04-29 08:50 | 51.64509 | -0.70629 | 2054 ft | 92 kts | 57° |
| 2026-04-29 08:51 | 51.64922 | -0.69840 | 1870 ft | 93 kts | 57° |
| 2026-04-29 08:51 | 51.65336 | -0.69037 | 1682 ft | 93 kts | 56° |
| 2026-04-29 08:51 | 51.65755 | -0.68239 | 1497 ft | 94 kts | 55° |
| 2026-04-29 08:51 | 51.66174 | -0.67430 | 1313 ft | 94 kts | 53° |
| 2026-04-29 08:52 | 51.66591 | -0.66623 | 1173 ft | 91 kts | 53° |
| 2026-04-29 08:52 | 51.66990 | -0.65869 | 1172 ft | 88 kts | 54° |
| 2026-04-29 08:52 | 51.67386 | -0.65097 | 1181 ft | 92 kts | 55° |
| 2026-04-29 08:52 | 51.67828 | -0.64260 | 1177 ft | 100 kts | 55° |
| 2026-04-29 08:53 | 51.68279 | -0.63391 | 1179 ft | 103 kts | 53° |
| 2026-04-29 08:53 | 51.68734 | -0.62499 | 1177 ft | 103 kts | 54° |
| 2026-04-29 08:53 | 51.69190 | -0.61619 | 1170 ft | 103 kts | 56° |
| 2026-04-29 08:53 | 51.69643 | -0.60741 | 1169 ft | 102 kts | 53° |
| 2026-04-29 08:54 | 51.70095 | -0.59889 | 1161 ft | 98 kts | 54° |
| 2026-04-29 08:54 | 51.70527 | -0.59052 | 1167 ft | 97 kts | 56° |
| 2026-04-29 08:54 | 51.70960 | -0.58207 | 1158 ft | 98 kts | 54° |
| 2026-04-29 08:54 | 51.71394 | -0.57377 | 1255 ft | 96 kts | 54° |
| 2026-04-29 08:55 | 51.71824 | -0.56543 | 1254 ft | 97 kts | 55° |
| 2026-04-29 08:55 | 51.72255 | -0.55703 | 1254 ft | 97 kts | 56° |
| 2026-04-29 08:55 | 51.72461 | -0.54700 | 1260 ft | 97 kts | 89° |
| 2026-04-29 08:55 | 51.72228 | -0.53660 | 1263 ft | 100 kts | 109° |
| 2026-04-29 08:56 | 51.71917 | -0.52680 | 1263 ft | 98 kts | 108° |
| 2026-04-29 08:56 | 51.71606 | -0.51704 | 1267 ft | 98 kts | 108° |
| 2026-04-29 08:56 | 51.71301 | -0.50722 | 1269 ft | 99 kts | 108° |
| 2026-04-29 08:56 | 51.70991 | -0.49731 | 1270 ft | 99 kts | 108° |
| 2026-04-29 08:57 | 51.70678 | -0.48752 | 1273 ft | 99 kts | 109° |
| 2026-04-29 08:57 | 51.70369 | -0.47756 | 1281 ft | 101 kts | 108° |
| 2026-04-29 08:57 | 51.70059 | -0.46786 | 1269 ft | 90 kts | 108° |
| 2026-04-29 08:57 | 51.69803 | -0.45962 | 1294 ft | 80 kts | 105° |
| 2026-04-29 08:58 | 51.69554 | -0.45148 | 1287 ft | 81 kts | 105° |
| 2026-04-29 08:58 | 51.69323 | -0.44384 | 1337 ft | 69 kts | 104° |
| 2026-04-29 08:58 | 51.69101 | -0.43714 | 1336 ft | 65 kts | 109° |
| 2026-04-29 08:58 | 51.68837 | -0.43154 | 1277 ft | 64 kts | 109° |
| 2026-04-29 08:59 | 51.68612 | -0.42524 | 1266 ft | 64 kts | 104° |
| 2026-04-29 08:59 | 51.68373 | -0.41883 | 1263 ft | 68 kts | 108° |
| 2026-04-29 08:59 | 51.68104 | -0.41244 | 1288 ft | 70 kts | 111° |
| 2026-04-29 08:59 | 51.67791 | -0.40620 | 1296 ft | 72 kts | 115° |
| 2026-04-29 09:00 | 51.67465 | -0.39988 | 1287 ft | 75 kts | 114° |
| 2026-04-29 09:00 | 51.67129 | -0.39351 | 1317 ft | 74 kts | 118° |
| 2026-04-29 09:00 | 51.66723 | -0.38833 | 1390 ft | 78 kts | 132° |
| 2026-04-29 09:00 | 51.66201 | -0.38474 | 1412 ft | 81 kts | 140° |
| 2026-04-29 09:01 | 51.65707 | -0.38138 | 1279 ft | 75 kts | 136° |
| 2026-04-29 09:01 | 51.65312 | -0.37666 | 1198 ft | 68 kts | 115° |
| 2026-04-29 09:01 | 51.65122 | -0.37011 | 1157 ft | 63 kts | 91° |
| 2026-04-29 09:01 | 51.65136 | -0.36339 | 1035 ft | 60 kts | 76° |
| 2026-04-29 09:02 | 51.65228 | -0.35668 | 907 ft | 62 kts | 76° |
| 2026-04-29 09:02 | 51.65308 | -0.34982 | 772 ft | 61 kts | 78° |
| 2026-04-29 09:02 | 51.65386 | -0.34343 | 642 ft | 55 kts | 81° |
| 2026-04-29 09:02 | 51.65452 | -0.33727 | 455 ft | 53 kts | 79° |
| 2026-04-29 09:03 | 51.65515 | -0.33195 | 342 ft | 48 kts | 75° |
| 2026-04-29 09:03 | 51.65568 | -0.32726 | 310 ft | 36 kts | 79° |
| 2026-04-29 09:03 | 51.65601 | -0.32443 | 312 ft | 19 kts | 80° |
| 2026-04-29 09:03 | 51.65606 | -0.32355 | 312 ft | 4 kts | 125° |
| 2026-04-29 09:04 | 51.65581 | -0.32340 | 312 ft | 8 kts | 154° |
| 2026-04-29 09:04 | 51.65553 | -0.32321 | 311 ft | 2 kts | 158° |
| 2026-04-29 09:04 | 51.65539 | -0.32312 | 311 ft | 2 kts | 158° |
| 2026-04-29 09:04 | 51.65523 | -0.32301 | 311 ft | 3 kts | 157° |
| 2026-04-29 09:05 | 51.65510 | -0.32303 | 311 ft | 2 kts | 244° |
| 2026-04-29 09:05 | 51.65507 | -0.32324 | 311 ft | 2 kts | 253° |
| 2026-04-29 09:05 | 51.65499 | -0.32350 | 311 ft | 3 kts | 211° |
| 2026-04-29 09:05 | 51.65485 | -0.32362 | 311 ft | 1 kts | 243° |
| 2026-04-29 09:06 | 51.65485 | -0.32366 | 311 ft | 0 kts | 255° |